Flight Track Log - Related Links

Times and Time Zones

All times are in EDT time to prevent confusion due to time zone crossing. See the EJA929 flight status page for this flight to view local times or setup timezone preferences in your user account.

Time Position Orientation Groundspeed Altitude Reporting Facility
EDT Latitude Longitude Course Direction KTS MPH feet Rate Location/Type
Mon 10:07:44 AM 40.9000 -74.0333 311° West 193 222 2,700  Level New York TRACON
Mon 10:08:44 AM 40.9333 -74.0833 311° West 227 261 5,900 1,700 Climbing New York TRACON
Mon 10:09:44 AM 41.0000 -74.1333 330° Northwest 277 319 6,100 100 Climbing New York TRACON
Mon 10:10:44 AM 41.0667 -74.1333 360° North 277 319 6,100 500 Level New York TRACON
Mon 10:11:44 AM 41.1333 -74.1000 21° North 283 326 7,100 1,900 Climbing New York TRACON
Mon 10:12:44 AM 41.1667 -74.0000 66° East 315 362 9,900 2,300 Climbing New York TRACON
Mon 10:13:44 AM 41.2000 -73.8833 69° East 382 440 11,700 1,902 Climbing New York TRACON
Mon 10:15:28 AM 41.2583 -73.6331 73° East 439 505 15,100 1,252 Climbing Boston Center
Mon 10:16:27 AM 41.2994 -73.4681 72° East 455 524 15,100  Level Boston Center
Mon 10:17:28 AM 41.3281 -73.2969 77° East 469 540 15,100  Level Boston Center
Mon 10:18:28 AM 41.3500 -73.1425 79° East 474 545 15,100 -50 Level Boston Center
Mon 10:19:29 AM 41.3781 -72.9547 79° East 468 539 15,000 -50 Descending Boston Center
Mon 10:20:29 AM 41.3994 -72.8025 79° East 468 539 15,000  Level Boston Center
Mon 10:21:27 AM 41.4250 -72.6172 80° East 468 539 15,000  Level Boston Center
Mon 10:22:27 AM 41.4647 -72.4761 69° East 462 532 15,000 -50 Level Boston Center
Mon 10:23:28 AM 41.5147 -72.3069 68° East 445 512 14,900 49 Descending Boston Center
Mon 10:24:29 AM 41.5581 -72.1656 68° East 451 519 15,100 99 Climbing Boston Center
Mon 10:25:29 AM 41.6075 -71.9903 69° East 451 519 15,100  Level Boston Center
Mon 10:26:29 AM 41.6486 -71.8511 68° East 446 513 15,100  Level Boston Center
Mon 10:27:27 AM 41.6975 -71.6783 69° East 448 516 15,100  Level Boston Center
Mon 10:28:27 AM 41.7383 -71.5386 69° East 448 516 15,100 -246 Level Boston Center
Mon 10:29:29 AM 41.7867 -71.3681 69° East 447 514 14,600 -1,317 Descending Boston Center
Mon 10:30:30 AM 41.8250 -71.2283 70° East 442 509 12,400 -1,780 Descending Boston Center
Mon 10:31:27 AM 41.8672 -71.0908 68° East 383 441 11,100 -832 Descending Boston Center
Mon 10:32:11 AM 41.9000 -71.0000 64° Northeast 346 398 11,000 -52 Descending KA90
Mon 10:33:23 AM 41.9667 -70.8667 56° Northeast 348 400 11,000 -48 Level KA90
Mon 10:34:17 AM 42.0000 -70.7833 62° Northeast 334 384 10,900 -1,000 Descending KA90
Mon 10:35:23 AM 42.0667 -70.6667 52° Northeast 328 377 9,000 -1,650 Descending KA90
Mon 10:36:17 AM 42.1333 -70.6167 29° Northeast 296 341 7,600 -1,474 Descending KA90
Mon 10:37:17 AM 42.2000 -70.6333 350° North 264 304 6,200 -1,350 Descending KA90
Mon 10:38:17 AM 42.2833 -70.6500 352° North 254 292 4,900 -1,289 Descending KA90
Mon 10:39:18 AM 42.3500 -70.6833 340° North 260 299 3,600 -992 Descending KA90
Mon 10:40:18 AM 42.4000 -70.7333 324° Northwest 205 236 2,900 -429 Descending KA90
Mon 10:41:24 AM 42.4000 -70.8000 270° West 170 196 2,700 -524 Descending KA90
Mon 10:42:24 AM 42.3833 -70.8667 251° West 172 198 1,800 -850 Descending KA90
Mon 10:43:24 AM 42.3667 -70.9167 246° West 126 145 1,000 -684 Descending KA90
Mon 10:44:18 AM 42.3667 -70.9500 270° West 118 136 500 -556 Descending KA90
Mon 10:46:00 AM 42.3500 -71.0000 260° West  Level FlightAware Approximate
Mon 10:53:00 AM 42.3630 -71.0064 260° West  Level Estimated

Login

Don't have an account? Register now (free) for customized features, flight alerts, and more!